Swartswood, New Jersey
Current Conditions -  °F | °C
As of 2:53 AM on Tuesday 27 Jan 2015 (Local Time) from KFWN Reporting Station
Light Snow Light Snow  
Wind Chill: 12°   Ceiling: 2000
Heat Index: 22°   Visibility: 1.2mi
Dew Point: 17°   Wind: 9mph
Humidity: 82%   Direction: 30°NNE
Pressure: 29.71"   Gusts: NA
Location:  41.09°N, 74.83°W
Report Text: KFWN 270753Z AUTO 03008KT 1 1/4SM -SN OVC020 M06/M08 A2971 RMK AO2 SLP066 P0000 T10561083
Loading
Personal Weather Stations






























Interactive Weather Map New forecast layout! Learn more

10-Day Weather Forecast

Advertisements
Track Severe Weather on mobile